createdAt,value
2022-10-20T00:01:07.470Z,97448.75
2022-10-20T00:03:33.930Z,97452.19
2022-10-20T00:06:10.904Z,97432.47
2022-10-20T00:08:37.726Z,97437.91
2022-10-20T00:11:04.444Z,97439.38
2022-10-20T00:13:30.924Z,97446.78
2022-10-20T00:15:58.055Z,97443.16
2022-10-20T00:18:24.539Z,97439.38
2022-10-20T00:20:51.427Z,97436.75
2022-10-20T00:23:17.883Z,97434.44
2022-10-20T00:25:44.320Z,97433.31
2022-10-20T00:28:10.816Z,97430.50
2022-10-20T00:30:37.422Z,97441.84
2022-10-20T00:33:04.085Z,97428.38
2022-10-20T00:35:30.913Z,97431.34
2022-10-20T00:37:57.463Z,97424.91
2022-10-20T00:40:24.195Z,97422.59
2022-10-20T00:42:50.594Z,97421.94
2022-10-20T00:45:18.036Z,97410.78
2022-10-20T00:47:57.722Z,97406.81
2022-10-20T00:50:31.752Z,97405.69
2022-10-20T00:52:58.214Z,97388.13
2022-10-20T00:55:25.939Z,97393.84
2022-10-20T00:57:52.835Z,97396.00
2022-10-20T01:00:19.295Z,97382.84
2022-10-20T01:02:45.910Z,97368.56
2022-10-20T01:05:12.754Z,97369.84
2022-10-20T01:07:39.418Z,97365.06
2022-10-20T01:10:06.259Z,97354.84
2022-10-20T01:12:32.665Z,97353.66
2022-10-20T01:15:02.560Z,97357.41
2022-10-20T01:17:38.522Z,97351.81
2022-10-20T01:20:11.224Z,97350.28
2022-10-20T01:22:55.662Z,97348.50
2022-10-20T01:25:34.386Z,97337.50
2022-10-20T01:28:03.857Z,97333.72
2022-10-20T01:30:30.585Z,97327.81
2022-10-20T01:33:04.396Z,97317.59
2022-10-20T01:35:42.587Z,97312.25
2022-10-20T01:38:15.226Z,97310.59
2022-10-20T01:40:46.190Z,97312.28
2022-10-20T01:43:13.265Z,97320.56
2022-10-20T01:45:40.135Z,97316.84
2022-10-20T01:48:06.932Z,97305.19
2022-10-20T01:50:33.938Z,97297.34
2022-10-20T01:53:00.474Z,97291.69
2022-10-20T01:55:26.903Z,97295.84
2022-10-20T01:58:12.103Z,97295.72
2022-10-20T02:00:38.540Z,97308.22
2022-10-20T02:03:04.912Z,97291.53
2022-10-20T02:05:54.613Z,97282.41
2022-10-20T02:08:28.604Z,97271.13
2022-10-20T02:10:56.565Z,97280.41
2022-10-20T02:13:22.979Z,97276.47
2022-10-20T02:15:51.232Z,97275.63
2022-10-20T02:18:22.462Z,97274.25
2022-10-20T02:20:49.391Z,97267.69
2022-10-20T02:23:15.928Z,97269.03
2022-10-20T02:25:42.592Z,97263.09
2022-10-20T02:28:09.456Z,97267.28
2022-10-20T02:30:35.912Z,97257.81
2022-10-20T02:33:02.399Z,97249.09
2022-10-20T02:35:32.853Z,97262.94
2022-10-20T02:37:59.306Z,97256.03
2022-10-20T02:40:25.964Z,97252.00
2022-10-20T02:42:52.442Z,97255.97
2022-10-20T02:45:18.915Z,97239.97
2022-10-20T02:47:45.391Z,97245.03
2022-10-20T02:50:11.809Z,97239.84
2022-10-20T02:52:38.406Z,97241.47
2022-10-20T02:55:05.458Z,97234.13
2022-10-20T02:57:31.919Z,97229.22
2022-10-20T02:59:58.314Z,97237.31
2022-10-20T03:02:24.774Z,97235.84
2022-10-20T03:04:51.163Z,97233.22
2022-10-20T03:07:17.648Z,97240.00
2022-10-20T03:09:44.380Z,97242.25
2022-10-20T03:12:10.864Z,97235.06
2022-10-20T03:14:37.279Z,97233.91
2022-10-20T03:17:03.796Z,97236.09
2022-10-20T03:19:30.207Z,97235.63
2022-10-20T03:21:56.631Z,97236.16
2022-10-20T03:24:23.001Z,97232.88
2022-10-20T03:26:49.388Z,97236.84
2022-10-20T03:29:15.806Z,97229.59
2022-10-20T03:31:42.334Z,97234.16
2022-10-20T03:34:08.899Z,97219.38
2022-10-20T03:36:35.275Z,97219.19
2022-10-20T03:39:01.679Z,97218.91
2022-10-20T03:41:28.072Z,97217.75
2022-10-20T03:43:54.505Z,97213.50
2022-10-20T03:46:20.939Z,97218.38
2022-10-20T03:48:47.394Z,97207.84
2022-10-20T03:51:13.968Z,97204.25
2022-10-20T03:53:40.559Z,97198.22
2022-10-20T03:56:07.833Z,97190.50
2022-10-20T03:58:34.776Z,97191.69
2022-10-20T04:01:01.409Z,97190.22
2022-10-20T04:03:27.826Z,97180.69
2022-10-20T04:05:54.213Z,97176.81
2022-10-20T04:08:20.647Z,97184.53
2022-10-20T04:10:47.043Z,97179.28
2022-10-20T04:13:13.460Z,97171.72
2022-10-20T04:15:39.863Z,97164.81
2022-10-20T04:18:06.304Z,97171.09
2022-10-20T04:20:32.693Z,97162.19
2022-10-20T04:22:59.131Z,97160.78
2022-10-20T04:25:25.534Z,97154.13
2022-10-20T04:27:51.939Z,97137.97
2022-10-20T04:30:18.376Z,97143.53
2022-10-20T04:32:44.830Z,97150.09
2022-10-20T04:35:11.232Z,97155.28
2022-10-20T04:37:37.970Z,97148.31
2022-10-20T04:40:04.772Z,97144.19
2022-10-20T04:42:31.226Z,97140.41
2022-10-20T04:47:32.883Z,97129.63
2022-10-20T04:49:59.319Z,97127.28
2022-10-20T04:52:25.748Z,97141.53
2022-10-20T04:54:52.161Z,97123.94
2022-10-20T04:57:18.578Z,97123.28
2022-10-20T04:59:45.695Z,97112.56
2022-10-20T05:02:12.140Z,97101.81
2022-10-20T05:04:38.527Z,97094.75
2022-10-20T05:07:04.948Z,97089.22
2022-10-20T05:09:32.890Z,97101.28
2022-10-20T05:11:59.588Z,97080.44
2022-10-20T05:14:25.992Z,97083.50
2022-10-20T05:16:52.422Z,97084.75
2022-10-20T05:19:18.867Z,97080.59
2022-10-20T05:21:45.317Z,97057.28
2022-10-20T05:24:14.422Z,97072.94
2022-10-20T05:26:44.482Z,97059.56
2022-10-20T05:29:11.359Z,97058.31
2022-10-20T05:31:38.792Z,97046.94
2022-10-20T05:34:05.323Z,97050.13
2022-10-20T05:36:32.036Z,97046.84
2022-10-20T05:38:58.485Z,97048.09
2022-10-20T05:41:26.318Z,97045.72
2022-10-20T05:43:53.935Z,97045.16
2022-10-20T05:46:20.458Z,97056.75
2022-10-20T05:48:47.124Z,97048.03
2022-10-20T05:51:15.268Z,97052.09
2022-10-20T05:53:42.238Z,97056.13
2022-10-20T05:56:09.728Z,97041.94
2022-10-20T05:58:36.427Z,97042.16
2022-10-20T06:01:09.952Z,97037.91
2022-10-20T06:03:36.589Z,97025.47
2022-10-20T06:06:03.259Z,97029.13
2022-10-20T06:08:32.742Z,97037.47
2022-10-20T06:11:03.738Z,97039.09
2022-10-20T06:13:30.651Z,97052.88
2022-10-20T06:16:01.140Z,97055.53
2022-10-20T06:18:27.566Z,97054.31
2022-10-20T06:21:03.886Z,97053.94
2022-10-20T06:23:30.492Z,97059.97
2022-10-20T06:26:01.369Z,97053.69
2022-10-20T06:28:29.059Z,97055.91
2022-10-20T06:30:55.446Z,97061.41
2022-10-20T06:33:21.860Z,97049.81
2022-10-20T06:35:48.286Z,97062.03
2022-10-20T06:38:14.684Z,97064.31
2022-10-20T06:40:41.056Z,97053.00
2022-10-20T06:43:07.472Z,97052.59
2022-10-20T06:45:33.916Z,97054.47
2022-10-20T06:48:00.350Z,97061.38
2022-10-20T06:50:26.873Z,97070.31
2022-10-20T06:52:53.363Z,97050.06
2022-10-20T06:55:19.816Z,97051.09
2022-10-20T06:57:46.255Z,97060.25
2022-10-20T07:00:12.852Z,97055.56
2022-10-20T07:02:39.808Z,97058.81
2022-10-20T07:05:06.403Z,97054.81
2022-10-20T07:07:32.905Z,97046.50
2022-10-20T07:09:59.584Z,97048.13
2022-10-20T07:12:26.015Z,97043.41
2022-10-20T07:14:52.439Z,97038.19
2022-10-20T07:17:18.902Z,97050.97
2022-10-20T07:19:45.275Z,97051.03
2022-10-20T07:22:11.731Z,97059.19
2022-10-20T07:24:38.192Z,97054.13
2022-10-20T07:27:04.631Z,97046.38
2022-10-20T07:29:31.660Z,97043.34
2022-10-20T07:31:59.999Z,97055.13
2022-10-20T07:34:28.396Z,97038.03
2022-10-20T07:36:55.176Z,97040.84
2022-10-20T07:39:21.604Z,97046.47
2022-10-20T07:41:48.710Z,97041.78
2022-10-20T07:44:15.316Z,97040.38
2022-10-20T07:46:41.853Z,97028.97
2022-10-20T07:51:54.734Z,97037.78
2022-10-20T07:54:21.174Z,97026.72
2022-10-20T07:56:47.828Z,97041.13
2022-10-20T07:59:14.403Z,97032.53
2022-10-20T08:01:41.011Z,97030.34
2022-10-20T08:04:07.528Z,97056.03
2022-10-20T08:06:34.009Z,97049.16
2022-10-20T08:09:00.644Z,97045.88
2022-10-20T08:11:27.525Z,97043.06
2022-10-20T08:13:53.963Z,97043.06
2022-10-20T08:16:24.839Z,97017.88
2022-10-20T08:18:58.103Z,97022.94
2022-10-20T08:21:25.228Z,97013.84
2022-10-20T08:23:51.702Z,97002.84
2022-10-20T08:26:20.257Z,96993.34
2022-10-20T08:28:47.115Z,96992.00
2022-10-20T08:31:13.485Z,96980.53
2022-10-20T08:33:41.030Z,96977.06
2022-10-20T08:36:08.820Z,96995.41
2022-10-20T08:38:35.542Z,96983.13
2022-10-20T08:41:02.051Z,96987.59
2022-10-20T08:43:28.612Z,96987.94
2022-10-20T08:45:55.007Z,96974.63
2022-10-20T08:48:25.798Z,96977.59
2022-10-20T08:50:52.758Z,96979.19
2022-10-20T08:53:20.022Z,96993.75
2022-10-20T08:55:46.782Z,96988.09
2022-10-20T08:58:17.625Z,96963.31
2022-10-20T09:00:44.096Z,96987.56
2022-10-20T09:03:13.729Z,96982.28
2022-10-20T09:05:40.791Z,96991.78
2022-10-20T09:08:07.920Z,96982.34
2022-10-20T09:10:38.676Z,96981.00
2022-10-20T09:13:11.678Z,96982.16
2022-10-20T09:15:38.059Z,96973.69
2022-10-20T09:18:06.656Z,96970.03
2022-10-20T09:20:36.070Z,96971.81
2022-10-20T09:23:07.954Z,96969.63
2022-10-20T09:25:43.595Z,96971.69
2022-10-20T09:28:16.995Z,96967.38
2022-10-20T09:30:45.694Z,96963.88
2022-10-20T09:33:29.117Z,96969.03
2022-10-20T09:35:57.593Z,96978.59
2022-10-20T09:38:26.579Z,96971.09
2022-10-20T09:40:59.140Z,96982.31
2022-10-20T09:43:25.542Z,96990.44
2022-10-20T09:45:56.586Z,96996.34
2022-10-20T09:48:28.939Z,97000.63
2022-10-20T09:50:56.141Z,96994.13
2022-10-20T09:53:27.254Z,96977.41
2022-10-20T09:55:53.655Z,96990.84
2022-10-20T09:58:30.802Z,96980.25
2022-10-20T10:00:59.078Z,96972.13
2022-10-20T10:03:25.770Z,96981.47
2022-10-20T10:05:53.253Z,96983.91
2022-10-20T10:08:20.587Z,96977.81
2022-10-20T10:10:58.226Z,96979.44
2022-10-20T10:13:26.613Z,96987.78
2022-10-20T10:16:04.289Z,96995.72
2022-10-20T10:18:30.797Z,96996.53
2022-10-20T10:21:00.388Z,96997.16
2022-10-20T10:23:27.022Z,96999.59
2022-10-20T10:25:53.551Z,96990.78
2022-10-20T10:28:20.048Z,96998.34
2022-10-20T10:30:49.432Z,96994.75
2022-10-20T10:33:26.960Z,96980.06
2022-10-20T10:35:53.414Z,96987.44
2022-10-20T10:38:19.839Z,96991.09
2022-10-20T10:40:55.486Z,96986.63
2022-10-20T10:43:29.747Z,96987.44
2022-10-20T10:46:09.400Z,96986.78
2022-10-20T10:48:38.827Z,96974.31
2022-10-20T10:51:06.866Z,96984.09
2022-10-20T10:53:33.254Z,96989.81
2022-10-20T10:58:46.867Z,96994.97
2022-10-20T11:01:13.300Z,96990.34
2022-10-20T11:03:39.933Z,96988.75
2022-10-20T11:06:12.875Z,96996.72
2022-10-20T11:08:45.862Z,96995.28
2022-10-20T11:11:27.644Z,96980.03
2022-10-20T11:13:54.068Z,96977.97
2022-10-20T11:16:20.480Z,96969.41
2022-10-20T11:19:08.044Z,96974.47
2022-10-20T11:21:37.482Z,96979.63
2022-10-20T11:24:16.138Z,96964.75
2022-10-20T11:26:52.198Z,96944.97
2022-10-20T11:29:29.026Z,96937.69
2022-10-20T11:31:57.429Z,96945.94
2022-10-20T11:34:26.249Z,96940.41
2022-10-20T11:37:11.555Z,96950.72
2022-10-20T11:39:39.700Z,96944.47
2022-10-20T11:42:35.962Z,96951.13
2022-10-20T11:45:19.496Z,96940.28
2022-10-20T11:47:46.478Z,96929.78
2022-10-20T11:50:13.006Z,96938.66
2022-10-20T11:52:39.650Z,96943.22
2022-10-20T11:55:12.347Z,96935.25
2022-10-20T11:57:45.199Z,96952.59
2022-10-20T12:02:51.981Z,96956.50
2022-10-20T12:05:37.267Z,96947.13
2022-10-20T12:08:29.839Z,96939.81
2022-10-20T12:11:06.348Z,96943.06
2022-10-20T12:13:39.036Z,96936.50
2022-10-20T12:16:05.572Z,96935.63
2022-10-20T12:18:32.660Z,96946.19
2022-10-20T12:21:01.521Z,96931.53
2022-10-20T12:23:43.598Z,96938.50
2022-10-20T12:26:28.747Z,96929.78
2022-10-20T12:29:01.772Z,96933.13
2022-10-20T12:31:47.087Z,96917.06
2022-10-20T12:34:22.974Z,96928.91
2022-10-20T12:36:49.394Z,96930.78
2022-10-20T12:39:16.999Z,96928.53
2022-10-20T12:41:45.848Z,96932.59
2022-10-20T12:44:15.834Z,96924.06
2022-10-20T12:46:43.352Z,96934.03
2022-10-20T12:49:11.934Z,96927.50
2022-10-20T12:51:40.848Z,96927.63
2022-10-20T12:54:21.452Z,96925.22
2022-10-20T12:56:47.948Z,96915.81
2022-10-20T12:59:22.535Z,96908.31
2022-10-20T13:02:07.868Z,96908.50
2022-10-20T13:04:53.900Z,96910.50
2022-10-20T13:07:39.186Z,96902.56
2022-10-20T13:10:24.835Z,96905.22
2022-10-20T13:12:51.261Z,96900.72
2022-10-20T13:15:18.048Z,96910.91
2022-10-20T13:17:57.858Z,96918.44
2022-10-20T13:20:29.226Z,96928.34
2022-10-20T13:22:55.845Z,96921.84
2022-10-20T13:25:33.180Z,96933.81
2022-10-20T13:28:03.799Z,96927.50
2022-10-20T13:30:30.790Z,96917.34
2022-10-20T13:36:07.975Z,96914.91
2022-10-20T13:38:48.120Z,96905.16
2022-10-20T13:41:14.520Z,96905.97
2022-10-20T13:43:56.705Z,96898.25
2022-10-20T13:46:32.379Z,96894.78
2022-10-20T13:49:01.893Z,96893.56
2022-10-20T13:51:29.304Z,96903.53
2022-10-20T13:53:56.757Z,96884.00
2022-10-20T13:56:43.436Z,96880.34
2022-10-20T13:59:19.079Z,96882.78
2022-10-20T14:01:46.580Z,96880.09
2022-10-20T14:04:30.050Z,96894.13
2022-10-20T14:06:58.880Z,96895.78
2022-10-20T14:09:25.641Z,96906.56
2022-10-20T14:12:15.381Z,96898.44
2022-10-20T14:14:45.008Z,96895.03
2022-10-20T14:17:21.529Z,96900.31
2022-10-20T14:19:47.930Z,96895.22
2022-10-20T14:22:24.198Z,96891.59
2022-10-20T14:24:51.973Z,96897.47
2022-10-20T14:27:22.258Z,96874.50
2022-10-20T14:29:48.793Z,96882.59
2022-10-20T14:32:19.884Z,96869.59
2022-10-20T14:35:12.847Z,96873.69
2022-10-20T14:37:40.070Z,96882.63
2022-10-20T14:40:23.316Z,96882.63
2022-10-20T14:42:49.777Z,96883.00
2022-10-20T14:45:23.400Z,96880.56
2022-10-20T14:47:49.907Z,96876.28
2022-10-20T14:50:36.255Z,96879.13
2022-10-20T14:53:21.738Z,96879.53
2022-10-20T14:55:48.279Z,96881.94
2022-10-20T14:58:37.489Z,96866.94
2022-10-20T15:01:18.459Z,96876.28
2022-10-20T15:03:44.985Z,96859.16
2022-10-20T15:06:15.179Z,96861.59
2022-10-20T15:08:52.228Z,96846.97
2022-10-20T15:11:22.983Z,96852.84
2022-10-20T15:13:53.348Z,96853.88
2022-10-20T15:16:35.808Z,96846.16
2022-10-20T15:19:16.842Z,96830.91
2022-10-20T15:21:43.273Z,96844.13
2022-10-20T15:24:09.676Z,96843.72
2022-10-20T15:26:36.155Z,96840.88
2022-10-20T15:29:02.584Z,96841.06
2022-10-20T15:31:29.369Z,96833.94
2022-10-20T15:33:56.546Z,96842.47
2022-10-20T15:36:28.243Z,96835.16
2022-10-20T15:38:54.667Z,96847.56
2022-10-20T15:41:21.922Z,96842.06
2022-10-20T15:43:48.417Z,96845.75
2022-10-20T15:46:15.870Z,96834.75
2022-10-20T15:48:43.285Z,96825.81
2022-10-20T15:51:11.444Z,96837.19
2022-10-20T15:53:37.880Z,96830.91
2022-10-20T15:56:04.401Z,96830.91
2022-10-20T15:58:30.793Z,96817.69
2022-10-20T16:00:57.228Z,96828.25
2022-10-20T16:03:23.677Z,96824.00
2022-10-20T16:05:50.073Z,96820.94
2022-10-20T16:08:16.543Z,96827.84
2022-10-20T16:10:43.659Z,96823.19
2022-10-20T16:13:11.152Z,96826.06
2022-10-20T16:15:37.575Z,96816.50
2022-10-20T16:18:07.234Z,96807.97
2022-10-20T16:20:36.098Z,96810.00
2022-10-20T16:23:02.531Z,96817.31
2022-10-20T16:25:28.980Z,96805.13
2022-10-20T16:27:55.400Z,96811.63
2022-10-20T16:30:21.804Z,96818.53
2022-10-20T16:32:48.332Z,96812.63
2022-10-20T16:35:14.812Z,96814.09
2022-10-20T16:37:41.278Z,96810.63
2022-10-20T16:40:07.905Z,96799.81
2022-10-20T16:42:34.359Z,96799.81
2022-10-20T16:45:00.752Z,96801.88
2022-10-20T16:47:27.258Z,96792.06
2022-10-20T16:49:53.791Z,96799.63
2022-10-20T16:52:20.252Z,96792.91
2022-10-20T16:54:46.636Z,96807.97
2022-10-20T16:57:13.367Z,96803.28
2022-10-20T16:59:39.869Z,96795.34
2022-10-20T17:02:06.276Z,96799.38
2022-10-20T17:04:32.714Z,96799.19
2022-10-20T17:06:59.147Z,96802.66
2022-10-20T17:09:25.628Z,96799.38
2022-10-20T17:11:52.060Z,96790.25
2022-10-20T17:14:18.500Z,96798.97
2022-10-20T17:16:44.923Z,96797.31
2022-10-20T17:19:11.379Z,96801.78
2022-10-20T17:35:23.773Z,96789.84
2022-10-20T17:37:50.205Z,96796.34
2022-10-20T17:42:43.978Z,96815.44
2022-10-20T17:45:10.544Z,96802.22
2022-10-20T17:47:36.968Z,96815.59
2022-10-20T17:50:03.509Z,96812.16
2022-10-20T17:52:32.745Z,96810.31
2022-10-20T17:54:59.162Z,96817.63
2022-10-20T17:57:25.562Z,96822.16
2022-10-20T17:59:54.015Z,96816.47
2022-10-20T18:02:23.752Z,96824.19
2022-10-20T18:04:50.583Z,96825.00
2022-10-20T18:07:17.015Z,96833.94
2022-10-20T18:09:44.024Z,96820.47
2022-10-20T18:12:10.431Z,96826.56
2022-10-20T18:14:36.884Z,96822.69
2022-10-20T18:17:03.291Z,96829.00
2022-10-20T18:19:29.743Z,96823.31
2022-10-20T18:21:56.150Z,96831.84
2022-10-20T18:24:22.574Z,96830.22
2022-10-20T18:26:49.016Z,96836.72
2022-10-20T18:29:16.407Z,96827.38
2022-10-20T18:31:43.875Z,96822.50
2022-10-20T18:34:14.775Z,96824.72
2022-10-20T18:36:44.937Z,96816.56
2022-10-20T18:39:13.055Z,96814.97
2022-10-20T18:41:40.221Z,96822.03
2022-10-20T18:44:08.253Z,96813.72
2022-10-20T18:46:34.885Z,96822.44
2022-10-20T18:49:03.502Z,96809.84
2022-10-20T18:51:30.372Z,96802.13
2022-10-20T18:53:57.479Z,96801.94
2022-10-20T18:56:24.591Z,96806.03
2022-10-20T18:58:52.358Z,96791.56
2022-10-20T19:01:20.465Z,96803.41
2022-10-20T19:03:47.823Z,96792.84
2022-10-20T19:06:15.500Z,96785.91
2022-10-20T19:08:42.104Z,96792.44
2022-10-20T19:11:12.383Z,96792.44
2022-10-20T19:13:39.072Z,96789.59
2022-10-20T19:16:12.141Z,96776.38
2022-10-20T19:18:41.536Z,96768.88
2022-10-20T19:21:08.212Z,96763.22
2022-10-20T19:23:35.691Z,96762.00
2022-10-20T19:26:03.784Z,96758.72
2022-10-20T19:28:30.840Z,96750.56
2022-10-20T19:30:57.288Z,96746.09
2022-10-20T19:33:23.690Z,96753.84
2022-10-20T19:35:50.561Z,96748.38
2022-10-20T19:38:17.623Z,96737.81
2022-10-20T19:40:44.124Z,96736.38
2022-10-20T19:43:11.164Z,96742.47
2022-10-20T19:45:37.594Z,96745.72
2022-10-20T19:48:04.240Z,96738.81
2022-10-20T19:50:30.658Z,96730.28
2022-10-20T19:52:58.827Z,96727.84
2022-10-20T19:55:25.404Z,96725.41
2022-10-20T19:57:51.844Z,96726.22
2022-10-20T20:00:18.271Z,96731.31
2022-10-20T20:02:44.679Z,96720.53
2022-10-20T20:05:11.124Z,96718.09
2022-10-20T20:07:37.910Z,96722.16
2022-10-20T20:10:04.769Z,96717.69
2022-10-20T20:12:31.161Z,96704.63
2022-10-20T20:14:57.619Z,96705.84
2022-10-20T20:17:24.046Z,96715.41
2022-10-20T20:19:50.486Z,96704.63
2022-10-20T20:22:16.977Z,96696.47
2022-10-20T20:24:43.529Z,96712.78
2022-10-20T20:27:10.878Z,96707.47
2022-10-20T20:29:37.291Z,96697.72
2022-10-20T20:32:03.756Z,96689.97
2022-10-20T20:34:30.253Z,96698.94
2022-10-20T20:36:56.652Z,96695.28
2022-10-20T20:39:23.074Z,96693.25
2022-10-20T20:41:49.556Z,96682.47
2022-10-20T20:44:16.047Z,96680.25
2022-10-20T20:46:42.475Z,96685.91
2022-10-20T20:49:08.933Z,96685.13
2022-10-20T20:51:35.490Z,96684.72
2022-10-20T20:54:02.672Z,96687.97
2022-10-20T20:56:29.175Z,96700.59
2022-10-20T20:58:55.913Z,96704.03
2022-10-20T21:01:23.414Z,96683.50
2022-10-20T21:03:53.714Z,96698.13
2022-10-20T21:06:22.978Z,96687.75
2022-10-20T21:08:55.999Z,96686.34
2022-10-20T21:11:26.228Z,96680.84
2022-10-20T21:13:53.283Z,96668.66
2022-10-20T21:16:20.844Z,96681.47
2022-10-20T21:18:48.366Z,96689.00
2022-10-20T21:21:15.954Z,96678.22
2022-10-20T21:23:42.543Z,96670.09
2022-10-20T21:26:09.532Z,96673.16
2022-10-20T21:28:36.031Z,96688.38
2022-10-20T21:31:06.107Z,96690.22
2022-10-20T21:33:32.759Z,96677.00
2022-10-20T21:36:05.539Z,96681.66
2022-10-20T21:38:32.443Z,96682.69
2022-10-20T21:41:05.775Z,96673.31
2022-10-20T21:43:32.949Z,96685.09
2022-10-20T21:46:15.696Z,96679.00
2022-10-20T21:48:42.274Z,96673.72
2022-10-20T21:51:09.504Z,96695.28
2022-10-20T21:53:35.976Z,96699.34
2022-10-20T21:56:02.437Z,96701.97
2022-10-20T21:58:28.834Z,96697.50
2022-10-20T22:00:56.327Z,96699.53
2022-10-20T22:03:22.930Z,96696.06
2022-10-20T22:05:49.422Z,96698.94
2022-10-20T22:08:15.862Z,96694.03
2022-10-20T22:10:42.287Z,96693.00
2022-10-20T22:13:09.312Z,96697.91
2022-10-20T22:15:39.519Z,96695.25
2022-10-20T22:18:06.125Z,96692.00
2022-10-20T22:20:34.969Z,96700.56
2022-10-20T22:23:02.866Z,96699.09
2022-10-20T22:25:29.506Z,96699.28
2022-10-20T22:27:55.922Z,96696.44
2022-10-20T22:30:22.365Z,96712.69
2022-10-20T22:32:48.759Z,96708.63
2022-10-20T22:35:15.232Z,96700.09
2022-10-20T22:37:41.688Z,96696.00
2022-10-20T22:40:08.610Z,96696.81
2022-10-20T22:42:35.028Z,96692.97
2022-10-20T22:45:01.507Z,96692.16
2022-10-20T22:47:27.944Z,96686.22
2022-10-20T22:49:54.374Z,96673.03
2022-10-20T22:52:20.807Z,96676.09
2022-10-20T22:54:47.252Z,96692.78
2022-10-20T22:57:13.750Z,96682.81
2022-10-20T22:59:40.184Z,96677.09
2022-10-20T23:02:06.627Z,96680.16
2022-10-20T23:04:33.027Z,96672.41
2022-10-20T23:09:26.621Z,96657.13
2022-10-20T23:11:53.055Z,96657.13
2022-10-20T23:14:19.511Z,96657.34
2022-10-20T23:16:46.074Z,96658.34
2022-10-20T23:19:12.607Z,96644.09
2022-10-20T23:21:39.092Z,96642.25
2022-10-20T23:24:05.659Z,96655.09
2022-10-20T23:26:32.307Z,96659.38
2022-10-20T23:28:58.745Z,96665.06
2022-10-20T23:31:25.199Z,96667.50
2022-10-20T23:33:54.003Z,96669.75
2022-10-20T23:36:20.447Z,96665.06
2022-10-20T23:38:47.609Z,96659.75
2022-10-20T23:41:14.310Z,96666.69
2022-10-20T23:43:40.763Z,96666.69
2022-10-20T23:46:07.280Z,96669.97
2022-10-20T23:48:34.111Z,96667.31
2022-10-20T23:51:00.572Z,96672.41
2022-10-20T23:53:27.083Z,96654.25
2022-10-20T23:55:53.750Z,96663.66
2022-10-20T23:58:22.485Z,96645.72
